CYLK

Lutselk'e Airport

Lutselk'e, Northwest Territories, Canada
METAR CYLK 150000Z 28002KT 25SM FEW050 BKN090 BKN150 19/14 A2943 RMK SC1AC4AS2 19.5/13.3/0 LAST STFD OBS/NEXT 151400 UTC SLP973 DENSITY ALT 1800FT
Observed Flight Rules
Aug-15 @ 00:00 UTC (an hour ago) Visual Flight Rules
Wind Visibility Clouds
280° at 2 knots 25 miles
  • Few at 5,000' AGL
  • Broken at 9,000' AGL
  • Broken at 15,000' AGL
Temperatures Readings
Current 19°C / 66°F
Dewpoint 14°C / 57°F
Humidity 73%
Altimeter 29.43" Hg
Pressure 997.3 hPa
Elevation 179
METAR CYLK 150000Z 28002KT 25SM FEW050 BKN090 BKN150 19/14 A2943 RMK SC1AC4AS2 19.5/13.3/0 LAST STFD OBS/NEXT 151400 UTC SLP973 DENSITY ALT 1800FT
Observed Flight Rules
Aug-15 @ 00:00 UTC
(an hour ago)
VFR
Wind Visibility
280° at 2 knots 25 miles
Clouds
  • Few at 5,000' AGL
  • Broken at 9,000' AGL
  • Broken at 15,000' AGL
Temperature Dewpoint
19°C / 66°F 14°C / 57°F
Humidity Altimeter Pressure
73% 29.43" Hg 997.3 hPa